AVA50TX MTPP-TNCC
Flight info
| Callsign | AVA50TX |
|---|---|
| Flight time | 1h 15m |
| Altitude | 35000 |
| Route | TOVOL1S TOVOL DCT DARKE UA315 VESKA VESKA1B |
| Aircraft | A320/M-SDE3FGHIRWY/LB1 |
Departure
| Time | 2026-05-06 15:07 |
|---|---|
| Airport | Toussaint Louverture International Airport (MTPP) |
Arrival
| Time | 2026-05-06 16:22 |
|---|---|
| Airport | Hato International Airport (TNCC) |
| Time | Latitude | Longitude | Altitude | Speed | Heading |
|---|---|---|---|---|---|
| 2026-05-06 14:34 | 18.57613 | -72.29508 | 103 ft | 0 kts | 194° |
| 2026-05-06 14:57 | 18.57621 | -72.29506 | 102 ft | 4 kts | 188° |
| 2026-05-06 14:58 | 18.57646 | -72.29508 | 102 ft | 4 kts | 152° |
| 2026-05-06 14:58 | 18.57665 | -72.29525 | 101 ft | 4 kts | 120° |
| 2026-05-06 14:58 | 18.57676 | -72.29551 | 102 ft | 4 kts | 99° |
| 2026-05-06 14:58 | 18.57677 | -72.29571 | 102 ft | 0 kts | 86° |
| 2026-05-06 15:03 | 18.57679 | -72.29544 | 101 ft | 10 kts | 86° |
| 2026-05-06 15:03 | 18.57686 | -72.29475 | 101 ft | 9 kts | 65° |
| 2026-05-06 15:03 | 18.57736 | -72.29459 | 101 ft | 7 kts | 360° |
| 2026-05-06 15:03 | 18.57804 | -72.29460 | 101 ft | 11 kts | 0° |
| 2026-05-06 15:04 | 18.57870 | -72.29463 | 102 ft | 8 kts | 355° |
| 2026-05-06 15:04 | 18.57932 | -72.29469 | 104 ft | 12 kts | 353° |
| 2026-05-06 15:04 | 18.57989 | -72.29557 | 103 ft | 20 kts | 270° |
| 2026-05-06 15:04 | 18.57980 | -72.29761 | 102 ft | 34 kts | 267° |
| 2026-05-06 15:05 | 18.57967 | -72.30010 | 102 ft | 34 kts | 266° |
| 2026-05-06 15:05 | 18.57953 | -72.30265 | 97 ft | 35 kts | 266° |
| 2026-05-06 15:05 | 18.57941 | -72.30497 | 93 ft | 28 kts | 267° |
| 2026-05-06 15:05 | 18.57906 | -72.30641 | 88 ft | 15 kts | 240° |
| 2026-05-06 15:06 | 18.57937 | -72.30662 | 87 ft | 8 kts | 90° |
| 2026-05-06 15:06 | 18.57936 | -72.30614 | 88 ft | 11 kts | 89° |
| 2026-05-06 15:06 | 18.57952 | -72.30280 | 97 ft | 81 kts | 87° |
| 2026-05-06 15:06 | 18.57994 | -72.29469 | 106 ft | 138 kts | 87° |
| 2026-05-06 15:07 | 18.58049 | -72.28317 | 334 ft | 163 kts | 87° |
| 2026-05-06 15:07 | 18.58108 | -72.27133 | 1026 ft | 162 kts | 88° |
| 2026-05-06 15:07 | 18.58170 | -72.25913 | 1566 ft | 176 kts | 88° |
| 2026-05-06 15:07 | 18.58239 | -72.24546 | 1914 ft | 198 kts | 86° |
| 2026-05-06 15:08 | 18.58501 | -72.23031 | 2222 ft | 223 kts | 75° |
| 2026-05-06 15:08 | 18.58979 | -72.21392 | 2732 ft | 241 kts | 71° |
| 2026-05-06 15:08 | 18.59538 | -72.19699 | 3525 ft | 247 kts | 71° |
| 2026-05-06 15:08 | 18.60109 | -72.17975 | 4355 ft | 251 kts | 71° |
| 2026-05-06 15:09 | 18.60676 | -72.16223 | 5179 ft | 254 kts | 71° |
| 2026-05-06 15:09 | 18.61243 | -72.14443 | 6001 ft | 258 kts | 72° |
| 2026-05-06 15:09 | 18.61809 | -72.12635 | 6788 ft | 262 kts | 72° |
| 2026-05-06 15:09 | 18.62377 | -72.10797 | 7563 ft | 265 kts | 73° |
| 2026-05-06 15:10 | 18.62658 | -72.08870 | 8303 ft | 269 kts | 91° |
| 2026-05-06 15:10 | 18.62379 | -72.06919 | 9027 ft | 272 kts | 108° |
| 2026-05-06 15:10 | 18.61762 | -72.05027 | 9735 ft | 274 kts | 109° |
| 2026-05-06 15:10 | 18.61137 | -72.03112 | 10417 ft | 278 kts | 109° |
| 2026-05-06 15:11 | 18.60512 | -72.01174 | 11075 ft | 281 kts | 109° |
| 2026-05-06 15:11 | 18.59879 | -71.99214 | 11708 ft | 284 kts | 111° |
| 2026-05-06 15:11 | 18.58959 | -71.97363 | 12245 ft | 291 kts | 126° |
| 2026-05-06 15:11 | 18.57633 | -71.95654 | 12376 ft | 312 kts | 131° |
| 2026-05-06 15:12 | 18.56175 | -71.93865 | 12506 ft | 332 kts | 131° |
| 2026-05-06 15:12 | 18.54626 | -71.91970 | 12659 ft | 349 kts | 131° |
| 2026-05-06 15:12 | 18.52967 | -71.90060 | 13051 ft | 356 kts | 139° |
| 2026-05-06 15:12 | 18.50919 | -71.88580 | 13529 ft | 360 kts | 154° |
| 2026-05-06 15:13 | 18.48551 | -71.87718 | 14012 ft | 362 kts | 169° |
| 2026-05-06 15:13 | 18.46063 | -71.87224 | 14483 ft | 365 kts | 170° |
| 2026-05-06 15:13 | 18.43552 | -71.86735 | 14942 ft | 368 kts | 170° |
| 2026-05-06 15:13 | 18.41060 | -71.86249 | 15376 ft | 371 kts | 170° |
| 2026-05-06 15:14 | 18.38521 | -71.85753 | 15802 ft | 374 kts | 170° |
| 2026-05-06 15:14 | 18.35947 | -71.85249 | 16214 ft | 376 kts | 169° |
| 2026-05-06 15:14 | 18.33362 | -71.84744 | 16611 ft | 379 kts | 170° |
| 2026-05-06 15:14 | 18.30738 | -71.84434 | 16977 ft | 381 kts | 183° |
| 2026-05-06 15:15 | 18.28169 | -71.85079 | 17326 ft | 383 kts | 206° |
| 2026-05-06 15:15 | 18.26024 | -71.86714 | 17656 ft | 385 kts | 228° |
| 2026-05-06 15:15 | 18.24628 | -71.89114 | 17978 ft | 387 kts | 251° |
| 2026-05-06 15:15 | 18.24093 | -71.91894 | 18286 ft | 390 kts | 262° |
| 2026-05-06 15:16 | 18.23483 | -71.94716 | 18587 ft | 392 kts | 250° |
| 2026-05-06 15:16 | 18.22214 | -71.97252 | 18874 ft | 394 kts | 234° |
| 2026-05-06 15:16 | 18.20562 | -71.99561 | 19165 ft | 396 kts | 232° |
| 2026-05-06 15:16 | 18.18849 | -72.01784 | 19446 ft | 398 kts | 230° |
| 2026-05-06 15:17 | 18.16886 | -72.03833 | 19700 ft | 400 kts | 215° |
| 2026-05-06 15:17 | 18.14400 | -72.05133 | 19947 ft | 402 kts | 197° |
| 2026-05-06 15:17 | 18.11645 | -72.05577 | 20184 ft | 404 kts | 179° |
| 2026-05-06 15:17 | 18.08873 | -72.05113 | 20408 ft | 406 kts | 161° |
| 2026-05-06 15:18 | 18.06348 | -72.03787 | 20616 ft | 408 kts | 149° |
| 2026-05-06 15:18 | 18.03914 | -72.02237 | 20826 ft | 410 kts | 149° |
| 2026-05-06 15:18 | 18.01476 | -72.00669 | 21032 ft | 411 kts | 149° |
| 2026-05-06 15:18 | 17.99036 | -71.99097 | 21228 ft | 413 kts | 149° |
| 2026-05-06 15:19 | 17.96580 | -71.97516 | 21415 ft | 414 kts | 149° |
| 2026-05-06 15:19 | 17.94118 | -71.95935 | 21594 ft | 416 kts | 149° |
| 2026-05-06 15:19 | 17.91645 | -71.94350 | 21765 ft | 417 kts | 149° |
| 2026-05-06 15:19 | 17.89159 | -71.92771 | 21931 ft | 418 kts | 149° |
| 2026-05-06 15:20 | 17.86664 | -71.91199 | 22093 ft | 419 kts | 149° |
| 2026-05-06 15:20 | 17.84154 | -71.89628 | 22253 ft | 420 kts | 149° |
| 2026-05-06 15:20 | 17.81635 | -71.88052 | 22404 ft | 422 kts | 149° |
| 2026-05-06 15:20 | 17.79115 | -71.86475 | 22551 ft | 423 kts | 149° |
| 2026-05-06 15:21 | 17.76588 | -71.84892 | 22696 ft | 424 kts | 149° |
| 2026-05-06 15:21 | 17.74055 | -71.83303 | 22834 ft | 425 kts | 149° |
| 2026-05-06 15:21 | 17.71515 | -71.81711 | 22964 ft | 426 kts | 149° |
| 2026-05-06 15:21 | 17.68967 | -71.80113 | 23090 ft | 427 kts | 149° |
| 2026-05-06 15:22 | 17.66417 | -71.78510 | 23216 ft | 428 kts | 149° |
| 2026-05-06 15:22 | 17.63862 | -71.76904 | 23341 ft | 429 kts | 149° |
| 2026-05-06 15:22 | 17.61302 | -71.75297 | 23466 ft | 429 kts | 149° |
| 2026-05-06 15:22 | 17.58738 | -71.73691 | 23591 ft | 430 kts | 149° |
| 2026-05-06 15:23 | 17.56167 | -71.72083 | 23716 ft | 430 kts | 149° |
| 2026-05-06 15:23 | 17.53598 | -71.70477 | 23841 ft | 430 kts | 149° |
| 2026-05-06 15:23 | 17.51040 | -71.68875 | 24167 ft | 428 kts | 149° |
| 2026-05-06 15:23 | 17.48489 | -71.67272 | 24303 ft | 429 kts | 149° |
| 2026-05-06 15:24 | 17.45939 | -71.65668 | 24924 ft | 422 kts | 149° |
| 2026-05-06 15:24 | 17.43439 | -71.64097 | 25590 ft | 418 kts | 149° |
| 2026-05-06 15:24 | 17.40946 | -71.62532 | 26033 ft | 419 kts | 149° |
| 2026-05-06 15:24 | 17.38460 | -71.60976 | 26407 ft | 421 kts | 149° |
| 2026-05-06 15:25 | 17.35941 | -71.59402 | 26748 ft | 423 kts | 149° |
| 2026-05-06 15:25 | 17.33400 | -71.57820 | 27089 ft | 426 kts | 149° |
| 2026-05-06 15:25 | 17.30851 | -71.56233 | 27428 ft | 428 kts | 149° |
| 2026-05-06 15:25 | 17.28316 | -71.54650 | 27868 ft | 425 kts | 149° |
| 2026-05-06 15:26 | 17.25815 | -71.53084 | 28044 ft | 427 kts | 149° |
| 2026-05-06 15:26 | 17.23254 | -71.51478 | 28278 ft | 431 kts | 149° |
| 2026-05-06 15:26 | 17.20672 | -71.49861 | 28565 ft | 434 kts | 149° |
| 2026-05-06 15:26 | 17.18098 | -71.48251 | 28831 ft | 434 kts | 149° |
| 2026-05-06 15:27 | 17.15512 | -71.46635 | 28955 ft | 432 kts | 149° |
| 2026-05-06 15:27 | 17.12931 | -71.45022 | 29080 ft | 434 kts | 149° |
| 2026-05-06 15:27 | 17.10341 | -71.43404 | 29222 ft | 436 kts | 149° |
| 2026-05-06 15:27 | 17.07724 | -71.41771 | 29455 ft | 440 kts | 149° |
| 2026-05-06 15:28 | 17.05093 | -71.40127 | 29735 ft | 442 kts | 149° |
| 2026-05-06 15:28 | 17.02446 | -71.38472 | 30021 ft | 444 kts | 149° |
| 2026-05-06 15:28 | 16.99787 | -71.36814 | 30289 ft | 446 kts | 149° |
| 2026-05-06 15:28 | 16.97118 | -71.35151 | 30553 ft | 448 kts | 149° |
| 2026-05-06 15:29 | 16.95307 | -71.34023 | 30727 ft | 449 kts | 149° |
| 2026-05-06 15:29 | 16.92620 | -71.32346 | 30976 ft | 451 kts | 149° |
| 2026-05-06 15:29 | 16.89923 | -71.30661 | 31221 ft | 453 kts | 149° |
| 2026-05-06 15:29 | 16.87214 | -71.28973 | 31520 ft | 453 kts | 149° |
| 2026-05-06 15:30 | 16.84541 | -71.27311 | 31867 ft | 452 kts | 149° |
| 2026-05-06 15:30 | 16.81833 | -71.25632 | 32138 ft | 453 kts | 150° |
| 2026-05-06 15:30 | 16.79123 | -71.23952 | 32399 ft | 454 kts | 150° |
| 2026-05-06 15:30 | 16.76446 | -71.22287 | 32695 ft | 454 kts | 150° |
| 2026-05-06 15:31 | 16.73735 | -71.20600 | 33012 ft | 453 kts | 150° |
| 2026-05-06 15:31 | 16.71028 | -71.18920 | 33328 ft | 453 kts | 150° |
| 2026-05-06 15:31 | 16.68348 | -71.17258 | 33603 ft | 451 kts | 149° |
| 2026-05-06 15:32 | 16.62980 | -71.13929 | 34334 ft | 447 kts | 149° |
| 2026-05-06 15:32 | 16.60309 | -71.12273 | 34641 ft | 446 kts | 149° |
| 2026-05-06 15:32 | 16.57644 | -71.10619 | 34914 ft | 446 kts | 149° |
| 2026-05-06 15:32 | 16.55014 | -71.08982 | 34999 ft | 443 kts | 149° |
| 2026-05-06 15:33 | 16.50238 | -71.06017 | 35009 ft | 438 kts | 149° |
| 2026-05-06 15:34 | 16.46116 | -71.03464 | 35010 ft | 437 kts | 149° |
| 2026-05-06 15:34 | 16.40891 | -71.00234 | 35010 ft | 436 kts | 149° |
| 2026-05-06 15:35 | 16.35668 | -70.97013 | 35006 ft | 436 kts | 149° |
| 2026-05-06 15:35 | 16.30481 | -70.93806 | 35012 ft | 437 kts | 149° |
| 2026-05-06 15:36 | 16.25258 | -70.90577 | 35005 ft | 436 kts | 149° |
| 2026-05-06 15:36 | 16.20033 | -70.87356 | 35013 ft | 436 kts | 149° |
| 2026-05-06 15:37 | 16.14815 | -70.84130 | 35007 ft | 436 kts | 149° |
| 2026-05-06 15:37 | 16.09598 | -70.80910 | 35011 ft | 436 kts | 149° |
| 2026-05-06 15:38 | 16.04379 | -70.77702 | 35005 ft | 436 kts | 149° |
| 2026-05-06 15:38 | 15.99099 | -70.74611 | 35007 ft | 435 kts | 156° |
| 2026-05-06 15:39 | 15.93536 | -70.72140 | 35005 ft | 435 kts | 157° |
| 2026-05-06 15:39 | 15.87959 | -70.69684 | 35009 ft | 435 kts | 157° |
| 2026-05-06 15:40 | 15.82441 | -70.67247 | 34999 ft | 429 kts | 157° |
| 2026-05-06 15:40 | 15.76918 | -70.64799 | 35009 ft | 434 kts | 157° |
| 2026-05-06 15:41 | 15.71382 | -70.62357 | 35007 ft | 435 kts | 157° |
| 2026-05-06 15:41 | 15.65837 | -70.59919 | 35010 ft | 432 kts | 157° |
| 2026-05-06 15:42 | 15.60343 | -70.57503 | 35003 ft | 428 kts | 157° |
| 2026-05-06 15:42 | 15.54856 | -70.55094 | 35009 ft | 428 kts | 157° |
| 2026-05-06 15:43 | 15.49409 | -70.52704 | 35009 ft | 428 kts | 157° |
| 2026-05-06 15:43 | 15.43928 | -70.50288 | 35009 ft | 428 kts | 157° |
| 2026-05-06 15:44 | 15.38415 | -70.47855 | 35008 ft | 434 kts | 157° |
| 2026-05-06 15:44 | 15.32845 | -70.45414 | 35007 ft | 435 kts | 157° |
| 2026-05-06 15:45 | 15.27267 | -70.42970 | 35015 ft | 435 kts | 157° |
| 2026-05-06 15:45 | 15.21692 | -70.40524 | 35017 ft | 435 kts | 157° |
| 2026-05-06 15:46 | 15.16115 | -70.38080 | 35010 ft | 435 kts | 157° |
| 2026-05-06 15:46 | 15.10542 | -70.35635 | 35012 ft | 435 kts | 157° |
| 2026-05-06 15:47 | 15.04970 | -70.33195 | 35007 ft | 435 kts | 157° |
| 2026-05-06 15:47 | 15.00307 | -70.31156 | 34998 ft | 435 kts | 157° |
| 2026-05-06 15:48 | 14.94772 | -70.28732 | 35007 ft | 435 kts | 157° |
| 2026-05-06 15:48 | 14.89195 | -70.26290 | 35007 ft | 435 kts | 157° |
| 2026-05-06 15:49 | 14.83612 | -70.23853 | 35010 ft | 435 kts | 157° |
| 2026-05-06 15:49 | 14.78032 | -70.21418 | 35011 ft | 435 kts | 157° |
| 2026-05-06 15:50 | 14.72453 | -70.18984 | 35009 ft | 435 kts | 157° |
| 2026-05-06 15:50 | 14.66877 | -70.16550 | 35014 ft | 435 kts | 157° |
| 2026-05-06 15:51 | 14.61295 | -70.14119 | 35010 ft | 435 kts | 157° |
| 2026-05-06 15:51 | 14.55720 | -70.11691 | 35004 ft | 435 kts | 157° |
| 2026-05-06 15:52 | 14.50143 | -70.09264 | 35006 ft | 435 kts | 157° |
| 2026-05-06 15:52 | 14.44570 | -70.06835 | 35007 ft | 435 kts | 157° |
| 2026-05-06 15:53 | 14.38997 | -70.04406 | 35000 ft | 435 kts | 157° |
| 2026-05-06 15:53 | 14.33456 | -70.02005 | 35006 ft | 436 kts | 157° |
| 2026-05-06 15:54 | 14.27871 | -69.99581 | 35007 ft | 435 kts | 157° |
| 2026-05-06 15:54 | 14.22293 | -69.97154 | 35007 ft | 435 kts | 157° |
| 2026-05-06 15:55 | 14.16715 | -69.94727 | 34915 ft | 435 kts | 157° |
| 2026-05-06 15:55 | 14.13942 | -69.93525 | 34662 ft | 431 kts | 157° |
| 2026-05-06 15:55 | 14.11191 | -69.92333 | 34412 ft | 428 kts | 157° |
| 2026-05-06 15:56 | 14.08452 | -69.91147 | 34162 ft | 426 kts | 157° |
| 2026-05-06 15:56 | 14.05724 | -69.89964 | 33912 ft | 424 kts | 157° |
| 2026-05-06 15:56 | 14.03011 | -69.88789 | 33631 ft | 421 kts | 157° |
| 2026-05-06 15:56 | 14.00321 | -69.87626 | 33136 ft | 418 kts | 157° |
| 2026-05-06 15:57 | 13.97652 | -69.86471 | 32633 ft | 416 kts | 157° |
| 2026-05-06 15:57 | 13.95022 | -69.85332 | 32137 ft | 413 kts | 157° |
| 2026-05-06 15:57 | 13.92379 | -69.84185 | 31637 ft | 411 kts | 157° |
| 2026-05-06 15:57 | 13.89754 | -69.83044 | 31148 ft | 408 kts | 157° |
| 2026-05-06 15:58 | 13.87148 | -69.81914 | 30670 ft | 405 kts | 157° |
| 2026-05-06 15:58 | 13.84555 | -69.80793 | 30197 ft | 402 kts | 157° |
| 2026-05-06 15:58 | 13.81986 | -69.79682 | 29733 ft | 399 kts | 157° |
| 2026-05-06 15:58 | 13.79475 | -69.78594 | 29293 ft | 397 kts | 158° |
| 2026-05-06 15:59 | 13.76936 | -69.77495 | 28843 ft | 395 kts | 158° |
| 2026-05-06 15:59 | 13.74416 | -69.76406 | 28411 ft | 392 kts | 158° |
| 2026-05-06 15:59 | 13.71913 | -69.75324 | 27977 ft | 389 kts | 158° |
| 2026-05-06 15:59 | 13.69428 | -69.74253 | 27538 ft | 386 kts | 158° |
| 2026-05-06 16:00 | 13.66965 | -69.73193 | 27104 ft | 383 kts | 158° |
| 2026-05-06 16:00 | 13.64515 | -69.72139 | 26666 ft | 380 kts | 158° |
| 2026-05-06 16:00 | 13.62089 | -69.71092 | 26226 ft | 377 kts | 158° |
| 2026-05-06 16:00 | 13.59678 | -69.70049 | 25785 ft | 375 kts | 158° |
| 2026-05-06 16:01 | 13.57286 | -69.69012 | 25328 ft | 372 kts | 158° |
| 2026-05-06 16:01 | 13.54905 | -69.67982 | 24873 ft | 370 kts | 158° |
| 2026-05-06 16:01 | 13.52538 | -69.66958 | 24401 ft | 368 kts | 158° |
| 2026-05-06 16:01 | 13.50178 | -69.65938 | 23932 ft | 366 kts | 158° |
| 2026-05-06 16:02 | 13.47836 | -69.64928 | 23463 ft | 365 kts | 158° |
| 2026-05-06 16:02 | 13.45500 | -69.63921 | 22993 ft | 363 kts | 158° |
| 2026-05-06 16:02 | 13.43178 | -69.62922 | 22534 ft | 361 kts | 158° |
| 2026-05-06 16:02 | 13.40867 | -69.61926 | 22079 ft | 360 kts | 158° |
| 2026-05-06 16:03 | 13.38563 | -69.60935 | 21631 ft | 358 kts | 158° |
| 2026-05-06 16:03 | 13.36269 | -69.59949 | 21184 ft | 356 kts | 158° |
| 2026-05-06 16:03 | 13.33987 | -69.58969 | 20741 ft | 355 kts | 158° |
| 2026-05-06 16:03 | 13.31716 | -69.57993 | 20302 ft | 353 kts | 158° |
| 2026-05-06 16:04 | 13.29453 | -69.57018 | 19863 ft | 352 kts | 158° |
| 2026-05-06 16:04 | 13.27200 | -69.56048 | 19429 ft | 350 kts | 158° |
| 2026-05-06 16:04 | 13.24953 | -69.55080 | 18996 ft | 349 kts | 158° |
| 2026-05-06 16:04 | 13.22719 | -69.54118 | 18569 ft | 348 kts | 158° |
| 2026-05-06 16:05 | 13.20491 | -69.53159 | 18140 ft | 346 kts | 158° |
| 2026-05-06 16:05 | 13.18276 | -69.52205 | 17718 ft | 345 kts | 158° |
| 2026-05-06 16:05 | 13.16067 | -69.51253 | 17300 ft | 344 kts | 158° |
| 2026-05-06 16:05 | 13.13863 | -69.50304 | 16882 ft | 343 kts | 158° |
| 2026-05-06 16:06 | 13.11700 | -69.49375 | 16482 ft | 341 kts | 158° |
| 2026-05-06 16:06 | 13.09484 | -69.48425 | 16067 ft | 340 kts | 158° |
| 2026-05-06 16:06 | 13.07305 | -69.47491 | 15665 ft | 339 kts | 158° |
| 2026-05-06 16:06 | 13.05135 | -69.46561 | 15265 ft | 337 kts | 158° |
| 2026-05-06 16:07 | 13.03001 | -69.45644 | 14870 ft | 336 kts | 158° |
| 2026-05-06 16:07 | 13.00849 | -69.44722 | 14472 ft | 335 kts | 158° |
| 2026-05-06 16:07 | 12.98705 | -69.43803 | 14075 ft | 333 kts | 158° |
| 2026-05-06 16:07 | 12.96571 | -69.42887 | 13676 ft | 332 kts | 158° |
| 2026-05-06 16:08 | 12.94444 | -69.41972 | 13277 ft | 331 kts | 158° |
| 2026-05-06 16:08 | 12.92330 | -69.41060 | 12880 ft | 329 kts | 158° |
| 2026-05-06 16:08 | 12.90225 | -69.40153 | 12475 ft | 327 kts | 158° |
| 2026-05-06 16:08 | 12.88129 | -69.39253 | 12093 ft | 325 kts | 158° |
| 2026-05-06 16:09 | 12.86077 | -69.38371 | 11992 ft | 314 kts | 158° |
| 2026-05-06 16:09 | 12.84070 | -69.37509 | 12007 ft | 312 kts | 158° |
| 2026-05-06 16:09 | 12.82070 | -69.36653 | 11909 ft | 313 kts | 158° |
| 2026-05-06 16:09 | 12.80076 | -69.35802 | 11029 ft | 319 kts | 158° |
| 2026-05-06 16:10 | 12.78062 | -69.34941 | 10617 ft | 305 kts | 158° |
| 2026-05-06 16:10 | 12.76136 | -69.34118 | 10160 ft | 295 kts | 158° |
| 2026-05-06 16:10 | 12.74264 | -69.33318 | 9585 ft | 290 kts | 158° |
| 2026-05-06 16:10 | 12.72417 | -69.32527 | 9319 ft | 288 kts | 158° |
| 2026-05-06 16:11 | 12.70577 | -69.31739 | 9077 ft | 286 kts | 158° |
| 2026-05-06 16:11 | 12.68743 | -69.30954 | 8832 ft | 285 kts | 158° |
| 2026-05-06 16:11 | 12.66915 | -69.30174 | 8601 ft | 284 kts | 158° |
| 2026-05-06 16:11 | 12.65096 | -69.29397 | 8366 ft | 283 kts | 158° |
| 2026-05-06 16:12 | 12.63280 | -69.28622 | 8131 ft | 282 kts | 158° |
| 2026-05-06 16:12 | 12.61474 | -69.27850 | 7897 ft | 281 kts | 158° |
| 2026-05-06 16:12 | 12.59671 | -69.27079 | 7663 ft | 280 kts | 158° |
| 2026-05-06 16:12 | 12.57905 | -69.26324 | 7435 ft | 279 kts | 158° |
| 2026-05-06 16:13 | 12.56114 | -69.25559 | 7206 ft | 278 kts | 158° |
| 2026-05-06 16:13 | 12.54332 | -69.24799 | 6971 ft | 277 kts | 158° |
| 2026-05-06 16:13 | 12.52563 | -69.24043 | 6720 ft | 273 kts | 157° |
| 2026-05-06 16:13 | 12.50830 | -69.23301 | 6496 ft | 268 kts | 157° |
| 2026-05-06 16:14 | 12.49113 | -69.22568 | 6292 ft | 267 kts | 157° |
| 2026-05-06 16:14 | 12.47978 | -69.22083 | 6147 ft | 266 kts | 157° |
| 2026-05-06 16:14 | 12.45719 | -69.21120 | 5856 ft | 265 kts | 157° |
| 2026-05-06 16:14 | 12.44021 | -69.20394 | 5637 ft | 264 kts | 157° |
| 2026-05-06 16:15 | 12.42328 | -69.19669 | 5416 ft | 263 kts | 157° |
| 2026-05-06 16:15 | 12.40640 | -69.18948 | 5200 ft | 263 kts | 157° |
| 2026-05-06 16:15 | 12.38958 | -69.18230 | 4980 ft | 262 kts | 157° |
| 2026-05-06 16:15 | 12.37821 | -69.17747 | 4838 ft | 261 kts | 157° |
| 2026-05-06 16:16 | 12.36149 | -69.17035 | 4612 ft | 260 kts | 157° |
| 2026-05-06 16:16 | 12.34476 | -69.16323 | 4399 ft | 260 kts | 157° |
| 2026-05-06 16:16 | 12.32777 | -69.15722 | 4183 ft | 259 kts | 168° |
| 2026-05-06 16:16 | 12.30996 | -69.15546 | 3960 ft | 255 kts | 177° |
| 2026-05-06 16:17 | 12.29283 | -69.15451 | 3747 ft | 247 kts | 177° |
| 2026-05-06 16:17 | 12.27597 | -69.15358 | 3536 ft | 239 kts | 177° |
| 2026-05-06 16:17 | 12.25962 | -69.15267 | 3335 ft | 232 kts | 177° |
| 2026-05-06 16:17 | 12.24392 | -69.15067 | 3138 ft | 225 kts | 161° |
| 2026-05-06 16:18 | 12.23124 | -69.14220 | 2947 ft | 221 kts | 130° |
| 2026-05-06 16:18 | 12.22435 | -69.12852 | 2766 ft | 216 kts | 103° |
| 2026-05-06 16:18 | 12.22123 | -69.11365 | 2574 ft | 211 kts | 102° |
| 2026-05-06 16:18 | 12.21826 | -69.09938 | 2413 ft | 199 kts | 102° |
| 2026-05-06 16:19 | 12.21549 | -69.08618 | 2247 ft | 182 kts | 102° |
| 2026-05-06 16:19 | 12.21296 | -69.07404 | 2104 ft | 165 kts | 102° |
| 2026-05-06 16:19 | 12.21066 | -69.06309 | 1945 ft | 153 kts | 102° |
| 2026-05-06 16:19 | 12.20846 | -69.05270 | 1692 ft | 147 kts | 102° |
| 2026-05-06 16:20 | 12.20635 | -69.04256 | 1507 ft | 145 kts | 102° |
| 2026-05-06 16:20 | 12.20426 | -69.03250 | 1296 ft | 144 kts | 102° |
| 2026-05-06 16:20 | 12.20217 | -69.02253 | 1138 ft | 143 kts | 102° |
| 2026-05-06 16:20 | 12.20005 | -69.01257 | 954 ft | 143 kts | 102° |
| 2026-05-06 16:21 | 12.19792 | -69.00265 | 762 ft | 143 kts | 102° |
| 2026-05-06 16:21 | 12.19582 | -68.99275 | 574 ft | 142 kts | 102° |
| 2026-05-06 16:21 | 12.19374 | -68.98296 | 384 ft | 141 kts | 102° |
| 2026-05-06 16:21 | 12.19165 | -68.97310 | 205 ft | 141 kts | 102° |
| 2026-05-06 16:22 | 12.18965 | -68.96338 | 48 ft | 133 kts | 104° |
| 2026-05-06 16:22 | 12.18799 | -68.95548 | 40 ft | 90 kts | 102° |
| 2026-05-06 16:22 | 12.18704 | -68.95094 | 42 ft | 40 kts | 102° |
| 2026-05-06 16:22 | 12.18652 | -68.94851 | 44 ft | 34 kts | 102° |
| 2026-05-06 16:23 | 12.18604 | -68.94621 | 47 ft | 33 kts | 102° |
| 2026-05-06 16:23 | 12.18541 | -68.94466 | 46 ft | 20 kts | 161° |
| 2026-05-06 16:23 | 12.18454 | -68.94479 | 44 ft | 8 kts | 195° |
| 2026-05-06 16:23 | 12.18409 | -68.94535 | 45 ft | 14 kts | 263° |
| 2026-05-06 16:24 | 12.18428 | -68.94631 | 45 ft | 14 kts | 282° |
| 2026-05-06 16:24 | 12.18452 | -68.94743 | 43 ft | 21 kts | 282° |
| 2026-05-06 16:24 | 12.18488 | -68.94914 | 44 ft | 26 kts | 282° |
| 2026-05-06 16:24 | 12.18527 | -68.95097 | 42 ft | 27 kts | 282° |
| 2026-05-06 16:25 | 12.18568 | -68.95292 | 42 ft | 29 kts | 282° |
| 2026-05-06 16:25 | 12.18606 | -68.95477 | 43 ft | 26 kts | 282° |
| 2026-05-06 16:25 | 12.18641 | -68.95636 | 43 ft | 10 kts | 281° |
| 2026-05-06 16:25 | 12.18608 | -68.95668 | 43 ft | 6 kts | 189° |
| 2026-05-06 16:26 | 12.18571 | -68.95677 | 43 ft | 5 kts | 193° |
| 2026-05-06 16:26 | 12.18550 | -68.95681 | 43 ft | 1 kts | 190° |
| 2026-05-06 16:26 | 12.18547 | -68.95681 | 43 ft | 0 kts | 190° |